Time;durP1;ratioP1;P1;durP2;ratioP2;P2;SDS_P1;SDS_P2;PMS_P1;PMS_P2;Temp;Humidity;BMP_temperature;BMP_pressure;BME280_temperature;BME280_humidity;BME280_pressure;Samples;Min_cycle;Max_cycle;Signal;HPM_P1;HPM_P2
2022/04/22 00:00:41;;;;;;;3.95;2.33;;;14.60;40.40;;;;;;4949993;29;20499;-82
2022/04/22 00:03:07;;;;;;;4.43;2.50;;;14.60;40.50;;;;;;4942173;28;20148;-81
2022/04/22 00:05:34;;;;;;;3.65;2.50;;;14.60;40.60;;;;;;4946182;29;20117;-82
2022/04/22 00:08:00;;;;;;;3.67;2.60;;;14.50;40.40;;;;;;4924140;28;20036;-81
2022/04/22 00:10:27;;;;;;;3.22;2.50;;;14.50;40.50;;;;;;4931483;29;20036;-81
2022/04/22 00:12:53;;;;;;;4.30;2.53;;;14.50;40.60;;;;;;4950044;28;20475;-83
2022/04/22 00:15:20;;;;;;;2.67;2.35;;;14.50;40.70;;;;;;4962939;28;20058;-82
2022/04/22 00:17:46;;;;;;;2.90;2.40;;;14.40;40.60;;;;;;4949879;28;20061;-82
2022/04/22 00:20:13;;;;;;;4.13;2.60;;;14.40;40.70;;;;;;4944747;29;20035;-82
2022/04/22 00:22:40;;;;;;;3.20;2.60;;;14.30;40.60;;;;;;4966266;28;20080;-82
2022/04/22 00:25:12;;;;;;;3.53;2.40;;;14.30;40.70;;;;;;4950805;28;20122;-83
2022/04/22 00:27:38;;;;;;;3.80;2.67;;;14.30;40.80;;;;;;4937707;28;20039;-82
2022/04/22 00:30:07;;;;;;;4.03;2.33;;;14.20;40.70;;;;;;4945588;28;20039;-82
2022/04/22 00:32:36;;;;;;;3.17;2.90;;;14.20;40.70;;;;;;4932987;29;20038;-83
2022/04/22 00:35:03;;;;;;;3.53;2.40;;;14.20;40.90;;;;;;4949184;28;20023;-81
2022/04/22 00:37:29;;;;;;;5.40;3.30;;;14.20;41.00;;;;;;4946538;29;20042;-82
2022/04/22 00:39:55;;;;;;;3.92;2.63;;;14.10;40.90;;;;;;4961808;28;20036;-82
2022/04/22 00:42:21;;;;;;;4.57;3.00;;;14.00;40.80;;;;;;4936911;28;20055;-82
2022/04/22 00:44:47;;;;;;;3.05;2.70;;;14.00;40.80;;;;;;4948564;28;20031;-82
2022/04/22 00:47:13;;;;;;;4.68;3.72;;;14.00;40.90;;;;;;4947452;28;20444;-82
2022/04/22 00:49:39;;;;;;;3.60;2.65;;;14.00;41.00;;;;;;4939293;28;20023;-83
2022/04/22 00:52:05;;;;;;;4.10;3.53;;;14.00;41.10;;;;;;4959951;28;20043;-82
2022/04/22 00:54:32;;;;;;;3.13;2.83;;;13.90;41.00;;;;;;4948727;28;20027;-81
2022/04/22 00:56:58;;;;;;;3.72;2.47;;;13.90;41.10;;;;;;4960751;28;20314;-82
2022/04/22 00:59:25;;;;;;;3.83;3.33;;;13.80;41.00;;;;;;4952357;28;20028;-82
2022/04/22 01:01:50;;;;;;;3.28;2.97;;;13.90;41.20;;;;;;4934884;29;20884;-82
2022/04/22 01:09:49;;;;;;;4.90;3.10;;;13.70;41.00;;;;;;4945411;28;20027;-82
2022/04/22 01:12:16;;;;;;;10.77;4.53;;;13.70;41.10;;;;;;4942298;28;20031;-82
2022/04/22 01:14:42;;;;;;;4.93;3.30;;;13.70;41.20;;;;;;4952725;28;20597;-82
2022/04/22 01:17:08;;;;;;;4.85;3.20;;;13.60;41.10;;;;;;4946373;28;20471;-83
2022/04/22 01:19:35;;;;;;;4.38;3.13;;;13.60;41.20;;;;;;4946318;28;20035;-82
2022/04/22 01:22:02;;;;;;;2.92;2.58;;;13.60;41.30;;;;;;4947675;28;20388;-82
2022/04/22 01:24:29;;;;;;;3.22;2.88;;;13.60;41.40;;;;;;4958115;28;20035;-83
2022/04/22 01:26:56;;;;;;;4.45;3.20;;;13.50;41.30;;;;;;4945800;28;20134;-83
2022/04/22 01:29:26;;;;;;;4.88;3.38;;;13.50;41.40;;;;;;4947421;28;20031;-82
2022/04/22 01:31:52;;;;;;;4.35;3.50;;;13.40;41.90;;;;;;4946752;28;20042;-83
2022/04/22 01:34:18;;;;;;;4.60;3.30;;;13.40;41.40;;;;;;4946561;28;20348;-82
2022/04/22 01:36:44;;;;;;;4.32;3.65;;;13.40;41.50;;;;;;4943229;29;20048;-82
2022/04/22 01:39:10;;;;;;;6.10;4.57;;;13.30;41.40;;;;;;4945046;28;20035;-82
2022/04/22 01:41:36;;;;;;;5.50;3.83;;;13.20;41.40;;;;;;4946753;28;20050;-82
2022/04/22 01:44:03;;;;;;;5.00;3.45;;;13.20;40.90;;;;;;4963026;28;20026;-82
2022/04/22 01:46:29;;;;;;;5.45;4.00;;;13.20;41.60;;;;;;4950260;29;20066;-83
2022/04/22 01:48:55;;;;;;;4.82;3.88;;;13.10;41.50;;;;;;4951008;28;20024;-82
2022/04/22 01:51:20;;;;;;;5.85;4.72;;;13.10;41.60;;;;;;4946985;28;20863;-82
2022/04/22 01:53:47;;;;;;;5.90;4.35;;;13.10;41.70;;;;;;4962410;28;20024;-84
2022/04/22 01:56:12;;;;;;;4.00;3.60;;;13.10;42.10;;;;;;4949367;28;20502;-84
2022/04/22 01:58:38;;;;;;;7.28;4.07;;;13.00;41.70;;;;;;4950570;28;20031;-82
2022/04/22 02:01:04;;;;;;;6.47;4.25;;;13.00;41.90;;;;;;4947235;28;20054;-83
2022/04/22 02:03:30;;;;;;;4.78;4.18;;;12.90;41.80;;;;;;4947179;28;20043;-82
2022/04/22 02:05:57;;;;;;;5.85;4.18;;;12.90;41.90;;;;;;4948031;29;20054;-83
2022/04/22 02:08:23;;;;;;;7.03;4.05;;;12.90;41.90;;;;;;4948972;28;20553;-83
2022/04/22 02:10:49;;;;;;;4.80;4.28;;;12.80;41.90;;;;;;4932017;28;20122;-83
2022/04/22 02:13:16;;;;;;;5.60;4.35;;;12.80;41.90;;;;;;4929478;29;20058;-83
2022/04/22 02:15:41;;;;;;;6.70;4.28;;;12.80;42.10;;;;;;4950413;28;20058;-83
2022/04/22 02:18:07;;;;;;;5.78;4.03;;;12.80;42.10;;;;;;4949725;28;20052;-82
2022/04/22 02:20:33;;;;;;;5.60;3.80;;;12.70;42.10;;;;;;4948982;28;20035;-83
2022/04/22 02:22:59;;;;;;;5.65;4.22;;;12.70;42.20;;;;;;4951323;28;20083;-82
2022/04/22 02:25:25;;;;;;;5.30;4.72;;;12.60;42.10;;;;;;4948926;28;20149;-82
2022/04/22 02:30:36;;;;;;;5.10;3.72;;;12.60;42.30;;;;;;4932263;28;20027;-82
2022/04/22 02:33:01;;;;;;;5.75;4.80;;;12.50;42.20;;;;;;4949351;28;20038;-82
2022/04/22 02:35:28;;;;;;;4.95;4.30;;;12.50;42.30;;;;;;4948821;28;20114;-82
2022/04/22 02:37:54;;;;;;;4.95;3.67;;;12.50;42.40;;;;;;4951264;28;20404;-83
2022/04/22 02:45:51;;;;;;;4.57;3.60;;;12.40;42.50;;;;;;4966543;28;20047;-81
2022/04/22 02:48:18;;;;;;;5.45;3.45;;;12.30;42.40;;;;;;4967390;28;20040;-82
2022/04/22 02:50:44;;;;;;;4.97;3.88;;;12.30;42.50;;;;;;4951512;28;20023;-81
2022/04/22 02:53:09;;;;;;;5.53;3.80;;;12.20;42.40;;;;;;4951660;28;20112;-82
2022/04/22 02:55:40;;;;;;;5.60;4.05;;;12.20;42.50;;;;;;4952334;28;20058;-82
2022/04/22 02:58:07;;;;;;;4.50;4.07;;;12.20;42.60;;;;;;4951974;28;20027;-82
2022/04/22 03:00:33;;;;;;;4.90;3.97;;;12.10;42.50;;;;;;4950909;29;20042;-81
2022/04/22 03:02:59;;;;;;;4.75;3.78;;;12.10;42.60;;;;;;4952867;28;20081;-82
2022/04/22 03:05:24;;;;;;;6.18;4.18;;;12.10;42.70;;;;;;4947161;28;20067;-82
2022/04/22 03:07:50;;;;;;;5.50;3.83;;;12.10;42.80;;;;;;4951535;28;20039;-81
2022/04/22 03:10:18;;;;;;;5.57;3.90;;;12.10;42.80;;;;;;4950262;28;20063;-82
2022/04/22 03:12:43;;;;;;;5.53;3.70;;;12.00;42.70;;;;;;4952657;28;20475;-82
2022/04/22 03:15:10;;;;;;;5.65;3.97;;;12.00;42.80;;;;;;4952358;28;20034;-83
2022/04/22 03:17:36;;;;;;;6.80;4.55;;;12.00;42.90;;;;;;4954079;28;20039;-83
2022/04/22 03:20:02;;;;;;;5.82;3.88;;;11.90;42.80;;;;;;4957521;28;20378;-83
2022/04/22 03:22:28;;;;;;;5.30;4.18;;;11.90;42.80;;;;;;4974718;28;20104;-82
2022/04/22 03:24:54;;;;;;;4.78;3.80;;;11.90;42.90;;;;;;4950612;28;20050;-83
2022/04/22 03:27:20;;;;;;;6.03;4.53;;;11.90;42.90;;;;;;4952887;28;20050;-82
2022/04/22 03:29:46;;;;;;;4.45;4.05;;;11.90;42.90;;;;;;4967839;28;20039;-82
2022/04/22 03:32:12;;;;;;;5.03;3.67;;;11.90;43.00;;;;;;4970103;28;20042;-82
2022/04/22 03:34:38;;;;;;;4.60;3.58;;;11.80;42.90;;;;;;4974344;28;20015;-82
2022/04/22 03:37:04;;;;;;;5.82;4.32;;;11.80;42.90;;;;;;4971457;28;20020;-82
2022/04/22 03:39:30;;;;;;;5.15;4.45;;;11.80;43.00;;;;;;4969047;28;20023;-83
2022/04/22 03:41:56;;;;;;;6.20;4.93;;;11.80;43.00;;;;;;4963729;28;20502;-83
2022/04/22 03:44:22;;;;;;;5.53;4.25;;;11.70;42.90;;;;;;4962256;28;20027;-82
2022/04/22 03:46:47;;;;;;;4.20;3.80;;;11.70;43.00;;;;;;4956817;28;20047;-83
2022/04/22 03:49:13;;;;;;;5.95;4.57;;;11.70;43.00;;;;;;4951408;29;20042;-82
2022/04/22 03:51:39;;;;;;;6.85;5.50;;;11.70;43.20;;;;;;4960200;29;20030;-81
2022/04/22 03:54:05;;;;;;;6.45;4.53;;;11.60;43.00;;;;;;4964380;29;20043;-82
2022/04/22 03:59:15;;;;;;;4.78;4.38;;;11.60;43.10;;;;;;4944713;28;20281;-80
2022/04/22 04:01:42;;;;;;;4.95;4.10;;;11.60;43.10;;;;;;4954727;28;20086;-82
2022/04/22 04:04:08;;;;;;;5.45;4.90;;;11.60;43.80;;;;;;4968641;28;20031;-82
2022/04/22 04:06:35;;;;;;;5.07;4.57;;;11.60;43.30;;;;;;4949366;28;20090;-81
2022/04/22 04:17:15;;;;;;;10.27;4.68;;;11.50;43.30;;;;;;4941262;29;20038;-81
2022/04/22 04:25:11;;;;;;;6.18;5.15;;;11.40;43.20;;;;;;4942519;29;20028;-81
2022/04/22 04:27:37;;;;;;;5.85;4.85;;;11.40;43.20;;;;;;4963266;28;20041;-80
2022/04/22 04:30:04;;;;;;;6.53;4.80;;;11.40;43.30;;;;;;4959807;29;20042;-80
2022/04/22 04:32:30;;;;;;;7.30;5.40;;;11.40;43.30;;;;;;4965497;28;20031;-81
2022/04/22 04:34:55;;;;;;;5.97;5.28;;;11.40;43.40;;;;;;4956426;28;20126;-81
2022/04/22 04:37:21;;;;;;;5.10;4.60;;;11.40;43.40;;;;;;4952896;28;20391;-80
2022/04/22 04:39:47;;;;;;;6.00;5.15;;;11.40;43.50;;;;;;4952596;28;20039;-80
2022/04/22 04:42:13;;;;;;;5.32;4.70;;;11.30;43.40;;;;;;4955333;28;20028;-81
2022/04/22 04:44:40;;;;;;;8.35;6.03;;;11.40;43.60;;;;;;4954812;28;20035;-80
2022/04/22 04:47:09;;;;;;;7.95;6.03;;;11.40;43.70;;;;;;4953599;28;20065;-81
2022/04/22 04:49:35;;;;;;;6.95;5.32;;;11.40;43.70;;;;;;4939347;28;20523;-80
2022/04/22 04:52:01;;;;;;;5.65;5.07;;;11.30;43.60;;;;;;4949424;28;20095;-80
2022/04/22 04:54:27;;;;;;;7.55;6.18;;;11.30;43.70;;;;;;4951202;28;20035;-80
2022/04/22 04:56:53;;;;;;;7.80;5.75;;;11.30;43.70;;;;;;4950475;28;20031;-80
2022/04/22 04:59:20;;;;;;;7.55;6.45;;;11.30;43.80;;;;;;4947034;28;20023;-80
2022/04/22 05:01:45;;;;;;;7.97;5.57;;;11.40;44.10;;;;;;4951620;28;20050;-80
2022/04/22 05:04:11;;;;;;;7.70;6.32;;;11.30;43.90;;;;;;4946050;28;20499;-80
2022/04/22 05:06:37;;;;;;;9.25;7.10;;;11.30;44.00;;;;;;4942967;28;20418;-79
2022/04/22 05:09:03;;;;;;;10.68;6.95;;;11.40;44.20;;;;;;4947567;28;20546;-81
2022/04/22 05:11:29;;;;;;;7.78;7.00;;;11.40;44.20;;;;;;4941455;28;20154;-79
2022/04/22 05:13:54;;;;;;;10.90;7.07;;;11.30;44.00;;;;;;4949332;29;20024;-78
2022/04/22 05:16:20;;;;;;;7.78;6.75;;;11.40;44.30;;;;;;4946879;28;20038;-87
2022/04/22 05:18:46;;;;;;;7.93;7.10;;;11.40;44.30;;;;;;4952047;28;20027;-85
2022/04/22 05:21:14;;;;;;;7.70;6.90;;;11.40;44.30;;;;;;4948879;28;20035;-85
2022/04/22 05:23:40;;;;;;;8.95;7.75;;;11.40;44.40;;;;;;4945923;28;20042;-92
2022/04/22 05:26:06;;;;;;;10.23;7.90;;;11.50;44.60;;;;;;4951598;28;20039;-86
2022/04/22 05:28:32;;;;;;;8.70;7.43;;;11.50;44.60;;;;;;4951203;28;20035;-85
2022/04/22 05:33:43;;;;;;;11.98;10.65;;;11.50;44.60;;;;;;4948758;28;20035;-87
2022/04/22 05:36:09;;;;;;;15.52;13.80;;;11.50;44.50;;;;;;4951448;29;20082;-84
2022/04/22 05:38:35;;;;;;;18.10;15.60;;;11.50;44.40;;;;;;4949569;28;20123;-86
2022/04/22 05:41:01;;;;;;;16.52;14.82;;;11.60;44.60;;;;;;4957748;28;20035;-86
2022/04/22 05:43:28;;;;;;;19.25;15.80;;;11.50;44.40;;;;;;4950005;28;20031;-89
2022/04/22 05:45:54;;;;;;;16.98;13.77;;;11.40;44.40;;;;;;4939862;29;20040;-89
2022/04/22 05:48:20;;;;;;;16.48;14.50;;;11.40;44.80;;;;;;4938075;28;20434;-86
2022/04/22 05:50:46;;;;;;;16.27;14.48;;;11.40;45.70;;;;;;4942645;28;20554;-87
2022/04/22 05:53:12;;;;;;;16.58;14.85;;;11.50;45.50;;;;;;4948025;28;20138;-88
2022/04/22 05:55:38;;;;;;;15.00;13.40;;;11.60;45.60;;;;;;4964240;28;20031;-86
2022/04/22 05:58:04;;;;;;;15.50;13.55;;;11.60;45.60;;;;;;4954101;28;20046;-85
2022/04/22 06:00:31;;;;;;;16.52;13.73;;;11.70;45.70;;;;;;4945812;29;20216;-92
2022/04/22 06:02:58;;;;;;;15.27;13.68;;;11.70;45.70;;;;;;4941777;28;20058;-88
2022/04/22 06:05:25;;;;;;;16.13;13.55;;;11.80;45.80;;;;;;4934427;29;20326;-87
2022/04/22 06:10:37;;;;;;;14.90;12.60;;;12.00;46.00;;;;;;4949266;28;20027;-87
2022/04/22 06:13:05;;;;;;;15.02;13.43;;;12.00;45.80;;;;;;4935535;29;20070;-88
2022/04/22 06:15:31;;;;;;;15.93;14.20;;;12.00;45.80;;;;;;4951632;28;20032;-88
2022/04/22 06:17:57;;;;;;;16.83;14.52;;;12.10;45.90;;;;;;4950700;28;20035;-87
2022/04/22 06:20:23;;;;;;;16.63;14.82;;;12.20;46.10;;;;;;4952570;28;20031;-84
2022/04/22 06:22:49;;;;;;;15.50;13.90;;;12.20;46.00;;;;;;4952532;28;20042;-84
2022/04/22 06:25:15;;;;;;;17.10;15.18;;;12.30;46.10;;;;;;4959045;28;20039;-86
2022/04/22 06:27:44;;;;;;;18.20;15.23;;;12.30;46.00;;;;;;4953493;28;20380;-87
2022/04/22 06:30:13;;;;;;;16.83;14.32;;;12.40;46.20;;;;;;4953020;28;20054;-87
2022/04/22 06:32:40;;;;;;;15.82;13.90;;;12.50;46.30;;;;;;4951288;29;20039;-85
2022/04/22 06:35:07;;;;;;;16.33;14.57;;;12.50;46.20;;;;;;4952639;28;20035;-84
2022/04/22 06:37:39;;;;;;;17.05;15.35;;;12.60;46.30;;;;;;4947039;28;20055;-85
2022/04/22 06:45:46;;;;;;;17.35;15.10;;;12.70;46.30;;;;;;4946393;29;20051;-82
2022/04/22 06:48:13;;;;;;;16.55;14.52;;;12.70;46.30;;;;;;4958551;28;20049;-85
2022/04/22 06:50:40;;;;;;;18.25;15.70;;;12.70;46.20;;;;;;4950661;28;20510;-84
2022/04/22 06:53:07;;;;;;;17.20;15.40;;;12.80;46.40;;;;;;4930266;29;20432;-85
2022/04/22 06:55:33;;;;;;;19.55;16.83;;;12.80;46.30;;;;;;4952406;28;20358;-85
2022/04/22 06:58:00;;;;;;;21.52;17.05;;;12.90;46.50;;;;;;4947618;28;20126;-85
2022/04/22 07:00:27;;;;;;;17.60;15.40;;;12.90;46.40;;;;;;4943388;29;20366;-85
2022/04/22 07:02:53;;;;;;;17.02;15.18;;;13.00;46.50;;;;;;4938159;29;20067;-82
2022/04/22 07:05:21;;;;;;;18.65;16.75;;;13.10;46.60;;;;;;4964875;28;20146;-89
2022/04/22 07:07:47;;;;;;;19.10;16.70;;;13.10;46.50;;;;;;4933429;28;20495;-85
2022/04/22 07:10:14;;;;;;;17.77;15.95;;;13.20;46.60;;;;;;4942942;29;20164;-83
2022/04/22 07:12:40;;;;;;;20.17;18.17;;;13.20;46.50;;;;;;4943855;29;20124;-85
2022/04/22 07:15:07;;;;;;;18.95;16.95;;;13.20;46.40;;;;;;4952940;28;20748;-84
2022/04/22 07:17:34;;;;;;;17.83;15.75;;;13.30;46.50;;;;;;4950179;28;20067;-84
2022/04/22 07:20:01;;;;;;;20.67;17.45;;;13.40;46.70;;;;;;4950666;29;20031;-79
2022/04/22 07:22:27;;;;;;;18.48;16.67;;;13.50;46.70;;;;;;4952888;28;20031;-78
2022/04/22 07:24:56;;;;;;;20.23;17.52;;;13.60;46.70;;;;;;4953032;28;20038;-81
2022/04/22 07:27:30;;;;;;;19.60;17.50;;;13.70;46.80;;;;;;4948220;28;20164;-80
2022/04/22 07:29:58;;;;;;;21.92;19.20;;;13.80;46.80;;;;;;4959199;29;20035;-83
2022/04/22 07:32:25;;;;;;;19.73;17.63;;;13.90;46.80;;;;;;4974726;28;20050;-85
2022/04/22 07:34:52;;;;;;;22.23;19.02;;;13.90;46.70;;;;;;4979079;28;20019;-86
2022/04/22 07:37:18;;;;;;;20.60;17.27;;;14.00;46.80;;;;;;4961896;29;20039;-88
2022/04/22 07:39:44;;;;;;;20.85;18.65;;;14.10;46.90;;;;;;4960953;28;20030;-87
2022/04/22 07:42:17;;;;;;;22.70;18.80;;;14.10;46.90;;;;;;4959760;28;20130;-87
2022/04/22 07:47:34;;;;;;;20.17;18.10;;;14.10;46.80;;;;;;4953972;28;20005;-84
2022/04/22 07:50:02;;;;;;;21.25;18.92;;;14.20;46.80;;;;;;4944644;29;20033;-86
2022/04/22 07:52:28;;;;;;;22.15;18.98;;;14.20;46.80;;;;;;4952480;28;20054;-85
2022/04/22 07:54:54;;;;;;;22.15;17.88;;;14.20;46.80;;;;;;4938089;29;20027;-85
2022/04/22 07:57:21;;;;;;;22.05;18.98;;;14.30;46.90;;;;;;4963973;28;20274;-85
2022/04/22 07:59:47;;;;;;;20.23;17.90;;;14.40;47.10;;;;;;4951756;28;20063;-85
2022/04/22 08:02:13;;;;;;;21.77;18.35;;;14.40;47.00;;;;;;4951257;28;20070;-81
2022/04/22 08:04:39;;;;;;;19.58;17.40;;;14.40;46.90;;;;;;4933604;29;20305;-83
2022/04/22 08:07:05;;;;;;;21.10;18.88;;;14.50;47.10;;;;;;4950500;29;20067;-84
2022/04/22 08:09:31;;;;;;;21.35;19.15;;;14.50;47.10;;;;;;4966048;28;20479;-85
2022/04/22 08:11:57;;;;;;;20.58;18.30;;;14.50;47.10;;;;;;4963162;28;20031;-86
2022/04/22 08:14:24;;;;;;;19.88;17.27;;;14.50;47.10;;;;;;4945731;28;20058;-87
2022/04/22 08:16:50;;;;;;;21.85;18.35;;;14.60;47.80;;;;;;4966909;28;20475;-87
2022/04/22 08:19:16;;;;;;;20.17;18.08;;;14.60;47.80;;;;;;4946304;28;20487;-85
2022/04/22 08:21:42;;;;;;;24.20;18.17;;;14.70;47.30;;;;;;4951818;28;20059;-85
2022/04/22 08:24:10;;;;;;;21.10;17.95;;;14.70;47.30;;;;;;4966940;28;20053;-84
2022/04/22 08:26:37;;;;;;;19.90;17.77;;;14.70;47.20;;;;;;4951469;28;20046;-88
2022/04/22 08:29:03;;;;;;;24.23;16.05;;;14.80;47.30;;;;;;4962693;28;20250;-87
2022/04/22 08:31:29;;;;;;;19.63;17.42;;;14.80;47.30;;;;;;4950945;28;20066;-86
2022/04/22 08:33:57;;;;;;;20.35;18.23;;;14.90;47.70;;;;;;4950669;28;20023;-85
2022/04/22 08:36:29;;;;;;;18.58;16.55;;;15.00;47.90;;;;;;4951560;28;20038;-91
2022/04/22 08:38:57;;;;;;;21.60;17.45;;;15.10;48.10;;;;;;4961970;28;20031;-87
2022/04/22 08:41:23;;;;;;;19.08;17.08;;;15.10;48.00;;;;;;4958051;28;20095;-87
2022/04/22 08:43:56;;;;;;;18.67;16.83;;;15.20;48.10;;;;;;4945879;29;20082;-87
2022/04/22 08:51:54;;;;;;;17.63;15.88;;;15.40;48.10;;;;;;4950451;28;20039;-86
2022/04/22 08:54:21;;;;;;;18.98;16.92;;;15.60;48.20;;;;;;4946130;29;20524;-84
2022/04/22 08:56:52;;;;;;;21.13;16.67;;;15.80;48.30;;;;;;4944720;28;20035;-83
2022/04/22 08:59:18;;;;;;;17.77;14.75;;;15.90;48.10;;;;;;4950441;28;20031;-87
2022/04/22 09:01:45;;;;;;;16.77;15.05;;;16.10;48.10;;;;;;4976691;28;20034;-85
2022/04/22 09:04:11;;;;;;;16.38;14.75;;;16.30;48.20;;;;;;4948134;29;20286;-86
2022/04/22 09:06:37;;;;;;;19.73;16.48;;;16.40;48.10;;;;;;4949904;28;20039;-88
2022/04/22 09:09:07;;;;;;;19.10;15.73;;;16.60;48.10;;;;;;4952488;28;20133;-85
2022/04/22 09:11:40;;;;;;;16.73;15.00;;;16.70;48.00;;;;;;4932752;29;20046;-86
2022/04/22 09:14:06;;;;;;;16.63;14.52;;;16.90;48.20;;;;;;4949938;28;20035;-85
2022/04/22 09:16:32;;;;;;;17.73;14.35;;;17.00;48.20;;;;;;4950014;28;20485;-85
2022/04/22 09:19:00;;;;;;;16.67;14.90;;;17.10;48.20;;;;;;4949202;28;20488;-86
2022/04/22 09:21:26;;;;;;;16.90;14.63;;;17.20;48.20;;;;;;4948368;28;20035;-85
2022/04/22 09:23:53;;;;;;;15.82;14.02;;;17.20;48.10;;;;;;4950448;28;20035;-85
2022/04/22 09:26:23;;;;;;;15.27;13.68;;;17.30;48.10;;;;;;4947798;28;20072;-85
2022/04/22 09:28:59;;;;;;;14.95;13.45;;;17.40;48.10;;;;;;4948191;28;20042;-86
2022/04/22 09:31:30;;;;;;;14.70;13.02;;;17.50;48.10;;;;;;4949934;28;20562;-84
2022/04/22 09:33:56;;;;;;;15.52;13.63;;;17.60;48.20;;;;;;4949746;28;20498;-86
2022/04/22 09:45:01;;;;;;;12.45;11.13;;;17.90;48.10;;;;;;4949644;28;20512;-84
2022/04/22 09:47:32;;;;;;;13.02;11.75;;;18.10;48.20;;;;;;4947937;28;20058;-84
2022/04/22 09:50:00;;;;;;;15.50;12.05;;;18.20;48.10;;;;;;4943857;29;20032;-84
2022/04/22 09:52:27;;;;;;;14.57;12.18;;;18.30;47.90;;;;;;4933749;28;20039;-85
2022/04/22 09:55:02;;;;;;;12.55;11.05;;;18.50;48.10;;;;;;4954736;28;20050;-87
2022/04/22 09:57:56;;;;;;;12.85;11.45;;;18.70;48.10;;;;;;4950076;28;20414;-86
2022/04/22 10:00:24;;;;;;;13.20;11.32;;;19.00;48.10;;;;;;4948167;29;20054;-87
2022/04/22 10:02:52;;;;;;;13.15;11.85;;;19.20;48.10;;;;;;4961280;28;20036;-87
2022/04/22 10:05:20;;;;;;;13.35;11.93;;;19.30;48.00;;;;;;4944120;28;20617;-85
2022/04/22 10:07:50;;;;;;;13.70;10.90;;;19.50;48.00;;;;;;4943537;28;20055;-86
2022/04/22 10:10:19;;;;;;;13.48;11.20;;;19.50;47.90;;;;;;4946926;29;20183;-85
2022/04/22 10:12:49;;;;;;;12.90;10.38;;;19.50;47.80;;;;;;4971809;28;20132;-85
2022/04/22 10:15:19;;;;;;;11.68;9.80;;;19.60;48.00;;;;;;4973535;28;20039;-85
2022/04/22 10:17:48;;;;;;;13.35;10.85;;;19.60;47.90;;;;;;4972334;28;20019;-83
2022/04/22 10:20:14;;;;;;;11.95;10.10;;;19.60;47.80;;;;;;4947889;29;20042;-82
2022/04/22 10:22:41;;;;;;;11.57;9.57;;;19.60;47.80;;;;;;4970304;28;20066;-85
2022/04/22 10:25:10;;;;;;;12.68;9.90;;;19.60;47.80;;;;;;4972485;28;20039;-84
2022/04/22 10:27:37;;;;;;;11.65;9.52;;;19.50;47.70;;;;;;4987989;28;20027;-83
2022/04/22 10:30:06;;;;;;;12.52;9.93;;;19.60;47.80;;;;;;4982210;28;20027;-87
2022/04/22 10:32:33;;;;;;;11.88;9.10;;;19.60;47.80;;;;;;4972471;28;20035;-87
2022/04/22 10:35:01;;;;;;;10.98;9.40;;;19.70;47.80;;;;;;4970727;28;20039;-89
2022/04/22 10:37:28;;;;;;;11.40;8.85;;;19.80;48.00;;;;;;4953515;28;20035;-89
2022/04/22 10:39:56;;;;;;;11.48;9.32;;;19.90;47.90;;;;;;4948012;28;20027;-87
2022/04/22 10:42:37;;;;;;;11.07;8.90;;;20.00;47.90;;;;;;4951222;28;20035;-81
2022/04/22 10:47:53;;;;;;;10.40;8.93;;;20.40;47.90;;;;;;4948344;28;20650;-79
2022/04/22 10:50:31;;;;;;;8.85;7.75;;;20.70;48.00;;;;;;4947179;28;20070;-80
2022/04/22 10:53:05;;;;;;;10.98;8.98;;;20.80;47.80;;;;;;4947572;28;20538;-81
2022/04/22 10:55:36;;;;;;;16.63;9.25;;;20.90;47.80;;;;;;4945646;29;20134;-80
2022/04/22 10:58:30;;;;;;;10.15;8.38;;;20.90;47.70;;;;;;4947659;28;20035;-81
2022/04/22 11:00:57;;;;;;;10.20;7.82;;;20.90;47.40;;;;;;4943682;28;20050;-80
2022/04/22 11:03:27;;;;;;;12.88;8.38;;;20.80;47.50;;;;;;4948771;29;20069;-80
2022/04/22 11:05:56;;;;;;;11.52;7.93;;;20.60;47.30;;;;;;4947796;29;20059;-81
2022/04/22 11:08:58;;;;;;;10.05;7.15;;;20.40;47.20;;;;;;4957645;28;20086;-80
2022/04/22 11:11:24;;;;;;;8.95;7.38;;;20.20;47.10;;;;;;4944974;29;20486;-80
2022/04/22 11:13:53;;;;;;;9.13;7.40;;;20.00;47.20;;;;;;4942245;28;20038;-80
2022/04/22 11:16:24;;;;;;;10.68;7.57;;;19.80;47.10;;;;;;4945853;28;20110;-81
2022/04/22 11:19:23;;;;;;;10.55;7.68;;;19.60;46.90;;;;;;4955493;28;20043;-80
2022/04/22 11:21:52;;;;;;;8.95;6.68;;;19.40;46.80;;;;;;4951252;28;20039;-81
2022/04/22 11:24:27;;;;;;;11.55;7.70;;;19.30;47.00;;;;;;4952376;28;20058;-80
2022/04/22 11:27:11;;;;;;;8.57;6.38;;;19.10;46.70;;;;;;4950491;28;20045;-78
2022/04/22 11:29:38;;;;;;;9.68;6.32;;;19.10;46.90;;;;;;4973869;28;20050;-79
2022/04/22 11:32:21;;;;;;;7.22;6.38;;;19.00;47.00;;;;;;4962284;28;20042;-78
2022/04/22 11:35:11;;;;;;;10.27;6.83;;;19.10;47.20;;;;;;4950746;29;20027;-84
2022/04/22 11:37:37;;;;;;;10.63;6.95;;;19.20;47.30;;;;;;4958523;28;20082;-82
2022/04/22 11:40:08;;;;;;;8.60;6.15;;;19.30;47.20;;;;;;4952574;28;20041;-82
2022/04/22 11:42:44;;;;;;;8.85;6.65;;;19.30;47.10;;;;;;4934286;29;20063;-79
2022/04/22 11:45:16;;;;;;;13.35;6.75;;;19.30;47.00;;;;;;4959083;28;20046;-80
2022/04/22 11:47:43;;;;;;;7.97;6.25;;;19.40;47.00;;;;;;4950074;28;20051;-83
2022/04/22 11:50:16;;;;;;;7.40;6.03;;;19.50;47.10;;;;;;4963644;28;20034;-82
2022/04/22 11:52:42;;;;;;;8.70;6.25;;;19.60;47.20;;;;;;4959031;28;20042;-81
2022/04/22 11:55:08;;;;;;;8.55;6.20;;;19.80;47.30;;;;;;4955631;28;20023;-82
2022/04/22 11:57:37;;;;;;;9.73;5.95;;;19.80;47.20;;;;;;4950082;28;20368;-79
2022/04/22 12:05:41;;;;;;;8.02;5.63;;;20.00;47.20;;;;;;4948036;28;20027;-81
2022/04/22 12:08:10;;;;;;;7.97;5.80;;;20.10;47.20;;;;;;4951348;28;20112;-81
2022/04/22 12:10:37;;;;;;;8.27;5.85;;;20.20;47.20;;;;;;4935781;28;20031;-80
2022/04/22 12:13:05;;;;;;;7.03;5.47;;;20.30;47.30;;;;;;4946545;28;20031;-81
2022/04/22 12:15:31;;;;;;;10.48;6.47;;;20.50;47.30;;;;;;4955922;28;20023;-80
2022/04/22 12:17:57;;;;;;;13.18;6.07;;;20.80;47.40;;;;;;4987422;28;20037;-80
2022/04/22 12:20:26;;;;;;;6.03;5.28;;;21.00;47.40;;;;;;4973333;28;20035;-81
2022/04/22 12:22:55;;;;;;;8.38;5.70;;;21.20;47.30;;;;;;4974412;28;20027;-80
2022/04/22 12:25:23;;;;;;;6.97;5.85;;;21.40;47.40;;;;;;4969769;28;20039;-80
2022/04/22 12:28:09;;;;;;;8.65;6.00;;;21.50;47.30;;;;;;4969343;28;20039;-80
2022/04/22 12:30:40;;;;;;;9.02;5.70;;;21.50;47.00;;;;;;4979152;28;20071;-80
2022/04/22 12:33:08;;;;;;;10.05;7.05;;;21.40;46.90;;;;;;4961733;28;20104;-81
2022/04/22 12:35:34;;;;;;;9.13;6.45;;;21.30;46.90;;;;;;4951133;29;20546;-82
2022/04/22 12:38:07;;;;;;;11.18;6.55;;;21.20;46.90;;;;;;4955144;28;20038;-82
2022/04/22 12:40:46;;;;;;;8.18;6.30;;;21.10;47.00;;;;;;4954751;28;20057;-82
2022/04/22 12:43:31;;;;;;;8.05;5.63;;;20.90;46.90;;;;;;4951340;28;20156;-80
2022/04/22 12:52:10;;;;;;;10.18;7.43;;;20.30;47.50;;;;;;4958832;28;20032;-80
2022/04/22 12:54:37;;;;;;;10.27;5.95;;;20.10;46.80;;;;;;4934930;28;20123;-81
2022/04/22 12:57:07;;;;;;;7.07;6.13;;;20.00;46.90;;;;;;4947557;29;20055;-81
2022/04/22 12:59:43;;;;;;;8.10;5.65;;;19.80;46.80;;;;;;4947543;28;20568;-81
2022/04/22 13:02:12;;;;;;;7.03;6.32;;;19.70;46.90;;;;;;4947751;29;20177;-81
2022/04/22 13:04:55;;;;;;;7.70;6.10;;;19.60;47.60;;;;;;4941377;29;20124;-81
2022/04/22 13:07:22;;;;;;;8.77;5.90;;;19.60;47.10;;;;;;4942283;28;20069;-81
2022/04/22 13:09:48;;;;;;;8.25;6.30;;;19.70;47.20;;;;;;4948614;28;20046;-81
2022/04/22 13:12:14;;;;;;;7.07;6.28;;;19.80;47.20;;;;;;4947645;28;20403;-81
2022/04/22 13:14:48;;;;;;;7.40;5.40;;;20.00;47.20;;;;;;4948933;28;20038;-85
2022/04/22 13:17:20;;;;;;;8.95;6.15;;;20.30;47.30;;;;;;4950517;28;20038;-87
2022/04/22 13:19:46;;;;;;;9.18;5.55;;;20.40;47.10;;;;;;4950420;28;20063;-87
2022/04/22 13:22:12;;;;;;;8.07;5.38;;;20.60;47.20;;;;;;4956074;28;20031;-85
2022/04/22 13:24:40;;;;;;;8.60;5.97;;;20.80;47.30;;;;;;4951237;28;20058;-86
2022/04/22 13:27:07;;;;;;;7.20;5.47;;;20.90;47.20;;;;;;4950584;28;20593;-85
2022/04/22 13:29:33;;;;;;;7.75;5.82;;;21.20;47.40;;;;;;4949375;28;20118;-86
2022/04/22 13:31:59;;;;;;;8.10;5.57;;;21.30;47.30;;;;;;4948791;28;20062;-85
2022/04/22 13:34:25;;;;;;;6.75;5.97;;;21.50;47.30;;;;;;4948565;28;20059;-86
2022/04/22 13:36:51;;;;;;;8.73;5.40;;;21.80;47.60;;;;;;4949287;28;20049;-85
2022/04/22 13:39:17;;;;;;;8.07;5.47;;;21.90;47.40;;;;;;4952101;28;20031;-82
2022/04/22 13:41:43;;;;;;;10.32;5.68;;;22.10;47.40;;;;;;4949414;28;20031;-83
2022/04/22 13:44:09;;;;;;;7.07;4.85;;;22.30;47.50;;;;;;4949123;28;20430;-81
2022/04/22 13:52:24;;;;;;;8.07;5.18;;;22.90;47.60;;;;;;4944519;28;20042;-81
2022/04/22 13:54:52;;;;;;;6.32;4.50;;;23.10;47.60;;;;;;4931061;29;20027;-82
2022/04/22 13:57:18;;;;;;;6.10;4.30;;;23.20;47.60;;;;;;4933747;29;20064;-83
2022/04/22 13:59:44;;;;;;;8.25;4.95;;;23.20;47.50;;;;;;4927404;29;20444;-83